createdAt,value
2022-11-29T00:01:15.545Z,19.58
2022-11-29T00:03:43.571Z,19.58
2022-11-29T00:06:11.507Z,19.58
2022-11-29T00:08:37.796Z,19.57
2022-11-29T00:11:04.952Z,19.55
2022-11-29T00:13:31.235Z,19.57
2022-11-29T00:16:01.728Z,19.57
2022-11-29T00:18:28.014Z,19.57
2022-11-29T00:20:55.656Z,19.54
2022-11-29T00:23:21.976Z,19.55
2022-11-29T00:25:48.287Z,19.54
2022-11-29T00:28:14.715Z,19.53
2022-11-29T00:30:41.098Z,19.52
2022-11-29T00:33:07.452Z,19.54
2022-11-29T00:35:33.864Z,19.52
2022-11-29T00:38:01.501Z,19.52
2022-11-29T00:40:27.774Z,19.51
2022-11-29T00:42:54.108Z,19.52
2022-11-29T00:45:20.448Z,19.52
2022-11-29T00:47:46.822Z,19.52
2022-11-29T00:50:13.135Z,19.50
2022-11-29T00:52:39.415Z,19.49
2022-11-29T00:55:07.405Z,19.49
2022-11-29T00:57:33.804Z,19.49
2022-11-29T01:00:00.138Z,19.48
2022-11-29T01:02:26.513Z,19.48
2022-11-29T01:04:52.859Z,19.48
2022-11-29T01:07:19.281Z,19.49
2022-11-29T01:09:45.666Z,19.48
2022-11-29T01:12:13.244Z,19.48
2022-11-29T01:14:39.540Z,19.47
2022-11-29T01:17:05.882Z,19.47
2022-11-29T01:19:32.360Z,19.47
2022-11-29T01:21:58.673Z,19.46
2022-11-29T01:24:24.952Z,19.46
2022-11-29T01:26:51.245Z,19.48
2022-11-29T01:29:18.780Z,19.46
2022-11-29T01:31:45.121Z,19.45
2022-11-29T01:34:11.393Z,19.45
2022-11-29T01:36:37.726Z,19.45
2022-11-29T01:39:04.668Z,19.44
2022-11-29T01:41:32.592Z,19.44
2022-11-29T01:44:00.823Z,19.44
2022-11-29T01:46:30.019Z,19.44
2022-11-29T01:48:58.719Z,19.44
2022-11-29T01:51:25.885Z,19.44
2022-11-29T01:53:52.886Z,19.44
2022-11-29T01:56:19.283Z,19.42
2022-11-29T01:58:45.955Z,19.44
2022-11-29T02:01:12.716Z,19.45
2022-11-29T02:03:40.457Z,19.44
2022-11-29T02:06:07.607Z,19.44
2022-11-29T02:08:36.191Z,19.44
2022-11-29T02:11:14.667Z,19.42
2022-11-29T02:13:47.560Z,19.45
2022-11-29T02:16:19.557Z,19.44
2022-11-29T02:18:53.191Z,19.44
2022-11-29T02:21:27.018Z,19.43
2022-11-29T02:24:01.187Z,19.42
2022-11-29T02:26:42.008Z,19.44
2022-11-29T02:29:18.269Z,19.45
2022-11-29T02:31:59.438Z,19.47
2022-11-29T02:34:32.640Z,19.55
2022-11-29T02:37:11.409Z,19.61
2022-11-29T02:39:53.717Z,19.68
2022-11-29T02:42:32.941Z,19.72
2022-11-29T02:45:07.714Z,19.79
2022-11-29T02:47:43.748Z,19.86
2022-11-29T02:50:17.512Z,19.89
2022-11-29T02:52:48.479Z,19.93
2022-11-29T02:55:19.000Z,19.96
2022-11-29T02:57:50.110Z,20.02
2022-11-29T03:00:18.797Z,20.06
2022-11-29T03:02:48.942Z,20.10
2022-11-29T03:05:19.850Z,20.14
2022-11-29T03:07:49.097Z,20.16
2022-11-29T03:10:21.894Z,20.20
2022-11-29T03:12:49.775Z,20.23
2022-11-29T03:15:22.536Z,20.25
2022-11-29T03:17:55.552Z,20.27
2022-11-29T03:20:28.885Z,20.31
2022-11-29T03:23:05.362Z,20.33
2022-11-29T03:25:36.619Z,20.35
2022-11-29T03:28:06.223Z,20.37
2022-11-29T03:30:34.311Z,20.41
2022-11-29T03:33:04.807Z,20.43
2022-11-29T03:35:36.256Z,20.47
2022-11-29T03:38:05.022Z,20.48
2022-11-29T03:40:38.374Z,20.49
2022-11-29T03:43:07.463Z,20.53
2022-11-29T03:45:36.544Z,20.54
2022-11-29T03:48:05.248Z,20.55
2022-11-29T03:50:36.219Z,20.57
2022-11-29T03:53:04.022Z,20.59
2022-11-29T03:55:32.333Z,20.61
2022-11-29T03:58:05.407Z,20.63
2022-11-29T04:00:35.722Z,20.64
2022-11-29T04:03:17.581Z,20.66
2022-11-29T04:05:54.246Z,20.68
2022-11-29T04:08:41.225Z,20.69
2022-11-29T04:11:20.214Z,20.71
2022-11-29T04:13:58.633Z,20.73
2022-11-29T04:16:34.489Z,20.75
2022-11-29T04:19:13.066Z,20.76
2022-11-29T04:21:48.060Z,20.78
2022-11-29T04:24:35.476Z,20.80
2022-11-29T04:27:16.812Z,20.81
2022-11-29T04:29:49.583Z,20.83
2022-11-29T04:32:25.157Z,20.86
2022-11-29T04:34:58.981Z,20.86
2022-11-29T04:37:35.135Z,20.90
2022-11-29T04:40:10.444Z,20.91
2022-11-29T04:42:42.710Z,20.92
2022-11-29T04:45:28.298Z,20.94
2022-11-29T04:48:00.716Z,20.95
2022-11-29T04:50:33.143Z,20.96
2022-11-29T04:53:09.355Z,20.95
2022-11-29T04:55:43.065Z,20.97
2022-11-29T04:58:14.804Z,21.01
2022-11-29T05:00:47.554Z,21.02
2022-11-29T05:03:16.596Z,21.01
2022-11-29T05:05:47.511Z,21.03
2022-11-29T05:08:19.800Z,21.04
2022-11-29T05:10:52.369Z,21.05
2022-11-29T05:13:26.193Z,21.06
2022-11-29T05:16:02.520Z,21.06
2022-11-29T05:18:37.733Z,21.07
2022-11-29T05:21:08.706Z,21.07
2022-11-29T05:23:44.630Z,21.08
2022-11-29T05:26:14.766Z,21.09
2022-11-29T05:28:46.099Z,21.11
2022-11-29T05:31:21.242Z,21.10
2022-11-29T05:33:57.441Z,21.12
2022-11-29T05:36:27.958Z,21.13
2022-11-29T05:39:01.592Z,21.12
2022-11-29T05:41:38.229Z,21.12
2022-11-29T05:44:08.482Z,21.14
2022-11-29T05:46:39.880Z,21.14
2022-11-29T05:49:15.359Z,21.15
2022-11-29T05:51:44.540Z,21.16
2022-11-29T05:54:18.162Z,21.17
2022-11-29T05:56:50.598Z,21.17
2022-11-29T05:59:19.283Z,21.19
2022-11-29T06:01:50.542Z,21.10
2022-11-29T06:04:20.522Z,20.65
2022-11-29T06:06:50.378Z,20.62
2022-11-29T06:09:19.195Z,19.96
2022-11-29T06:11:48.674Z,19.23
2022-11-29T06:14:21.558Z,18.90
2022-11-29T06:17:00.691Z,19.12
2022-11-29T06:19:37.641Z,19.74
2022-11-29T06:22:11.578Z,20.07
2022-11-29T06:24:46.252Z,20.26
2022-11-29T06:27:22.697Z,20.39
2022-11-29T06:29:52.085Z,20.48
2022-11-29T06:32:24.353Z,20.55
2022-11-29T06:34:53.917Z,20.60
2022-11-29T06:37:23.179Z,20.64
2022-11-29T06:39:49.600Z,20.67
2022-11-29T06:42:16.241Z,20.76
2022-11-29T06:44:44.278Z,20.76
2022-11-29T06:47:17.620Z,20.76
2022-11-29T06:49:46.685Z,20.82
2022-11-29T06:52:19.078Z,20.83
2022-11-29T06:54:50.923Z,20.85
2022-11-29T06:57:20.579Z,20.89
2022-11-29T06:59:58.530Z,20.94
2022-11-29T07:02:32.328Z,20.93
2022-11-29T07:05:06.639Z,20.94
2022-11-29T07:07:33.533Z,20.95
2022-11-29T07:10:01.790Z,20.91
2022-11-29T07:12:28.405Z,20.70
2022-11-29T07:14:56.282Z,20.64
2022-11-29T07:17:26.661Z,20.58
2022-11-29T07:19:57.951Z,20.62
2022-11-29T07:22:29.284Z,20.60
2022-11-29T07:24:58.310Z,20.44
2022-11-29T07:27:29.631Z,20.41
2022-11-29T07:30:04.332Z,20.45
2022-11-29T07:32:38.619Z,20.39
2022-11-29T07:35:08.860Z,20.41
2022-11-29T07:37:40.705Z,20.55
2022-11-29T07:40:13.158Z,20.49
2022-11-29T07:42:45.428Z,20.46
2022-11-29T07:45:18.277Z,20.55
2022-11-29T07:47:45.095Z,20.61
2022-11-29T07:50:12.563Z,20.54
2022-11-29T07:52:39.268Z,20.52
2022-11-29T07:55:06.024Z,20.51
2022-11-29T07:57:32.359Z,20.44
2022-11-29T07:59:58.683Z,20.39
2022-11-29T08:02:28.203Z,20.35
2022-11-29T08:04:54.774Z,20.35
2022-11-29T08:07:21.358Z,20.39
2022-11-29T08:09:48.404Z,20.40
2022-11-29T08:12:15.137Z,20.44
2022-11-29T08:14:41.718Z,20.43
2022-11-29T08:17:08.737Z,20.48
2022-11-29T08:19:37.186Z,20.45
2022-11-29T08:22:03.858Z,20.49
2022-11-29T08:24:31.215Z,20.58
2022-11-29T08:26:58.106Z,20.51
2022-11-29T08:29:24.587Z,20.59
2022-11-29T08:31:51.078Z,20.61
2022-11-29T08:34:17.679Z,20.63
2022-11-29T08:36:45.712Z,20.67
2022-11-29T08:39:12.295Z,20.67
2022-11-29T08:41:38.646Z,20.66
2022-11-29T08:44:05.362Z,20.64
2022-11-29T08:46:31.851Z,20.74
2022-11-29T08:49:01.430Z,20.72
2022-11-29T08:51:27.924Z,20.72
2022-11-29T08:53:55.611Z,20.73
2022-11-29T08:57:04.874Z,20.74
2022-11-29T08:59:08.439Z,20.76
2022-11-29T09:01:34.907Z,20.74
2022-11-29T09:04:01.258Z,20.74
2022-11-29T09:06:28.308Z,20.75
2022-11-29T09:08:56.321Z,20.86
2022-11-29T09:11:23.552Z,20.97
2022-11-29T09:13:50.658Z,21.05
2022-11-29T09:16:18.936Z,21.09
2022-11-29T09:18:51.233Z,21.12
2022-11-29T09:21:18.504Z,21.16
2022-11-29T09:23:45.544Z,20.84
2022-11-29T09:26:19.628Z,20.70
2022-11-29T09:28:46.474Z,20.69
2022-11-29T09:31:14.201Z,20.62
2022-11-29T09:33:40.569Z,20.63
2022-11-29T09:36:07.806Z,20.39
2022-11-29T09:38:34.778Z,20.49
2022-11-29T09:41:04.490Z,20.67
2022-11-29T09:43:38.233Z,20.63
2022-11-29T09:46:10.902Z,20.57
2022-11-29T09:48:42.678Z,20.61
2022-11-29T09:51:17.507Z,20.60
2022-11-29T09:53:50.931Z,20.65
2022-11-29T09:56:20.634Z,20.56
2022-11-29T09:58:52.667Z,20.61
2022-11-29T10:01:21.519Z,20.56
2022-11-29T10:03:50.455Z,20.56
2022-11-29T10:06:21.134Z,20.55
2022-11-29T10:08:49.912Z,20.54
2022-11-29T10:11:19.419Z,20.56
2022-11-29T10:13:51.346Z,20.50
2022-11-29T10:16:22.238Z,20.45
2022-11-29T10:18:50.035Z,20.52
2022-11-29T10:21:18.169Z,20.50
2022-11-29T10:23:47.192Z,20.56
2022-11-29T10:26:13.898Z,20.55
2022-11-29T10:28:42.741Z,20.51
2022-11-29T10:31:15.880Z,20.43
2022-11-29T10:33:43.277Z,20.43
2022-11-29T10:36:15.169Z,20.44
2022-11-29T10:38:42.801Z,20.40
2022-11-29T10:41:11.843Z,20.45
2022-11-29T10:43:38.468Z,20.44
2022-11-29T10:46:06.927Z,20.44
2022-11-29T10:48:34.670Z,20.43
2022-11-29T10:51:01.432Z,20.43
2022-11-29T10:53:30.526Z,20.47
2022-11-29T10:56:00.170Z,20.45
2022-11-29T10:58:28.726Z,20.39
2022-11-29T11:00:56.265Z,20.35
2022-11-29T11:03:29.866Z,20.37
2022-11-29T11:05:59.560Z,20.40
2022-11-29T11:08:26.232Z,20.40
2022-11-29T11:10:55.395Z,20.39
2022-11-29T11:13:26.160Z,20.37
2022-11-29T11:15:56.097Z,20.37
2022-11-29T11:18:23.342Z,20.37
2022-11-29T11:20:52.930Z,20.39
2022-11-29T11:23:23.452Z,20.38
2022-11-29T11:25:55.601Z,20.43
2022-11-29T11:28:23.055Z,20.47
2022-11-29T11:30:50.462Z,20.64
2022-11-29T11:33:19.125Z,20.76
2022-11-29T11:35:59.863Z,20.83
2022-11-29T11:38:28.035Z,20.89
2022-11-29T11:41:02.326Z,20.94
2022-11-29T11:43:28.944Z,20.96
2022-11-29T11:45:55.592Z,20.98
2022-11-29T11:48:22.432Z,21.01
2022-11-29T11:50:51.444Z,21.05
2022-11-29T11:53:19.843Z,20.95
2022-11-29T11:55:54.403Z,20.76
2022-11-29T11:58:21.931Z,20.77
2022-11-29T12:01:05.486Z,20.68
2022-11-29T12:03:37.782Z,20.60
2022-11-29T12:06:12.518Z,20.66
2022-11-29T12:08:39.678Z,20.58
2022-11-29T12:11:10.214Z,20.53
2022-11-29T12:13:41.353Z,20.61
2022-11-29T12:16:10.603Z,20.59
2022-11-29T12:18:40.417Z,20.57
2022-11-29T12:21:10.915Z,20.58
2022-11-29T12:23:40.386Z,20.60
2022-11-29T12:26:19.106Z,20.61
2022-11-29T12:28:50.214Z,20.55
2022-11-29T12:31:25.929Z,20.68
2022-11-29T12:33:57.595Z,20.78
2022-11-29T12:36:31.408Z,20.71
2022-11-29T12:39:02.700Z,20.65
2022-11-29T12:41:35.759Z,20.65
2022-11-29T12:44:10.988Z,20.68
2022-11-29T12:46:37.517Z,20.55
2022-11-29T12:49:11.748Z,20.62
2022-11-29T12:51:43.290Z,20.79
2022-11-29T12:54:20.751Z,20.95
2022-11-29T12:56:53.790Z,20.98
2022-11-29T12:59:26.592Z,21.00
2022-11-29T13:02:02.290Z,21.01
2022-11-29T13:04:34.266Z,21.04
2022-11-29T13:07:05.574Z,21.07
2022-11-29T13:09:47.905Z,21.10
2022-11-29T13:12:19.218Z,21.11
2022-11-29T13:14:48.870Z,21.14
2022-11-29T13:17:21.781Z,21.15
2022-11-29T13:19:51.155Z,21.17
2022-11-29T13:22:21.093Z,21.19
2022-11-29T13:24:50.261Z,21.19
2022-11-29T13:27:19.419Z,21.25
2022-11-29T13:29:46.241Z,21.24
2022-11-29T13:32:19.204Z,21.20
2022-11-29T13:34:48.646Z,21.16
2022-11-29T13:37:17.819Z,21.16
2022-11-29T13:39:53.426Z,21.15
2022-11-29T13:42:24.288Z,21.16
2022-11-29T13:44:55.664Z,21.17
2022-11-29T13:47:22.272Z,21.17
2022-11-29T13:49:49.647Z,21.17
2022-11-29T13:52:23.931Z,21.18
2022-11-29T13:55:03.478Z,21.18
2022-11-29T13:58:14.282Z,21.19
2022-11-29T14:00:34.493Z,21.21
2022-11-29T14:03:15.672Z,21.22
2022-11-29T14:05:42.395Z,21.22
2022-11-29T14:08:18.561Z,21.25
2022-11-29T14:10:47.777Z,21.26
2022-11-29T14:13:15.881Z,21.26
2022-11-29T14:15:42.908Z,21.29
2022-11-29T14:18:32.528Z,21.29
2022-11-29T14:20:58.911Z,21.31
2022-11-29T14:23:35.520Z,21.31
2022-11-29T14:26:11.689Z,21.32
2022-11-29T14:28:39.912Z,21.32
2022-11-29T14:31:06.939Z,21.30
2022-11-29T14:33:49.180Z,21.29
2022-11-29T14:36:21.402Z,21.30
2022-11-29T14:38:53.898Z,21.28
2022-11-29T14:41:25.639Z,21.28
2022-11-29T14:44:03.555Z,21.26
2022-11-29T14:46:31.613Z,21.25
2022-11-29T14:48:59.696Z,21.25
2022-11-29T14:51:28.484Z,21.24
2022-11-29T14:54:04.228Z,21.24
2022-11-29T14:56:38.909Z,21.23
2022-11-29T14:59:15.173Z,21.23
2022-11-29T15:01:43.889Z,21.22
2022-11-29T15:04:11.761Z,21.22
2022-11-29T15:06:44.379Z,21.23
2022-11-29T15:09:15.612Z,21.23
2022-11-29T15:11:47.034Z,21.21
2022-11-29T15:14:18.659Z,21.24
2022-11-29T15:16:55.577Z,21.27
2022-11-29T15:19:34.256Z,21.25
2022-11-29T15:22:02.925Z,21.24
2022-11-29T15:24:29.509Z,21.26
2022-11-29T15:26:56.508Z,21.25
2022-11-29T15:29:22.915Z,21.26
2022-11-29T15:31:52.207Z,21.26
2022-11-29T15:34:19.973Z,21.26
2022-11-29T15:36:46.355Z,21.26
2022-11-29T15:39:24.437Z,21.28
2022-11-29T15:41:50.770Z,21.29
2022-11-29T15:44:20.988Z,21.30
2022-11-29T15:46:47.336Z,21.30
2022-11-29T15:49:16.812Z,21.31
2022-11-29T15:51:44.574Z,21.30
2022-11-29T15:54:13.881Z,21.31
2022-11-29T15:56:44.158Z,21.31
2022-11-29T15:59:17.453Z,21.32
2022-11-29T16:01:46.138Z,21.33
2022-11-29T16:04:15.735Z,21.32
2022-11-29T16:06:44.048Z,21.32
2022-11-29T16:09:12.423Z,21.40
2022-11-29T16:11:39.325Z,21.46
2022-11-29T16:14:17.864Z,21.38
2022-11-29T16:16:45.271Z,21.37
2022-11-29T16:19:20.941Z,21.36
2022-11-29T16:21:59.302Z,21.39
2022-11-29T16:24:26.142Z,21.37
2022-11-29T16:26:53.296Z,21.37
2022-11-29T16:29:20.722Z,21.37
2022-11-29T16:31:47.145Z,21.40
2022-11-29T16:34:20.679Z,21.40
2022-11-29T16:36:47.162Z,21.40
2022-11-29T16:39:21.397Z,21.43
2022-11-29T16:42:01.342Z,21.45
2022-11-29T16:44:42.481Z,21.44
2022-11-29T16:47:11.125Z,21.44
2022-11-29T16:49:37.581Z,21.43
2022-11-29T16:52:22.069Z,21.43
2022-11-29T16:54:50.363Z,21.41
2022-11-29T16:57:16.818Z,21.40
2022-11-29T16:59:43.379Z,21.39
2022-11-29T17:02:10.714Z,21.38
2022-11-29T17:04:37.121Z,21.37
2022-11-29T17:07:05.649Z,21.35
2022-11-29T17:09:32.447Z,21.33
2022-11-29T17:12:01.080Z,21.31
2022-11-29T17:14:27.758Z,21.29
2022-11-29T17:16:54.246Z,21.27
2022-11-29T17:19:22.169Z,21.27
2022-11-29T17:21:48.691Z,21.25
2022-11-29T17:24:16.355Z,21.23
2022-11-29T17:26:43.467Z,21.20
2022-11-29T17:29:11.924Z,21.18
2022-11-29T17:31:38.633Z,21.12
2022-11-29T17:34:05.297Z,21.11
2022-11-29T17:36:31.688Z,21.09
2022-11-29T17:38:58.500Z,21.08
2022-11-29T17:41:25.315Z,21.04
2022-11-29T17:43:52.318Z,21.05
2022-11-29T17:46:20.921Z,21.02
2022-11-29T17:48:47.674Z,21.01
2022-11-29T17:51:43.881Z,20.97
2022-11-29T17:54:01.496Z,20.96
2022-11-29T17:56:27.828Z,20.93
2022-11-29T17:58:55.118Z,20.91
2022-11-29T18:01:23.923Z,20.90
2022-11-29T18:03:51.427Z,20.89
2022-11-29T18:06:18.935Z,20.86
2022-11-29T18:08:46.109Z,20.85
2022-11-29T18:11:13.458Z,20.84
2022-11-29T18:13:40.096Z,20.83
2022-11-29T18:16:07.748Z,20.79
2022-11-29T18:18:35.772Z,20.78
2022-11-29T18:21:02.939Z,20.75
2022-11-29T18:23:29.391Z,20.76
2022-11-29T18:25:56.898Z,20.74
2022-11-29T18:28:23.237Z,20.73
2022-11-29T18:30:49.830Z,20.71
2022-11-29T18:33:16.209Z,20.70
2022-11-29T18:35:43.801Z,20.68
2022-11-29T18:38:17.374Z,20.67
2022-11-29T18:40:44.415Z,20.65
2022-11-29T18:43:11.167Z,20.64
2022-11-29T18:45:37.879Z,20.64
2022-11-29T18:48:04.695Z,20.62
2022-11-29T18:50:31.446Z,20.61
2022-11-29T18:52:59.157Z,20.61
2022-11-29T18:55:25.575Z,20.58
2022-11-29T18:57:52.213Z,20.55
2022-11-29T19:00:18.747Z,20.56
2022-11-29T19:02:45.085Z,20.54
2022-11-29T19:05:11.464Z,20.54
2022-11-29T19:07:37.817Z,20.53
2022-11-29T19:10:06.115Z,20.52
2022-11-29T19:12:32.480Z,20.50
2022-11-29T19:14:58.864Z,20.49
2022-11-29T19:17:25.176Z,20.47
2022-11-29T19:19:51.442Z,20.47
2022-11-29T19:22:17.771Z,20.46
2022-11-29T19:24:44.623Z,20.44
2022-11-29T19:27:12.475Z,20.44
2022-11-29T19:29:39.854Z,20.42
2022-11-29T19:32:06.378Z,20.42
2022-11-29T19:34:32.721Z,20.41
2022-11-29T19:36:59.021Z,20.39
2022-11-29T19:39:25.358Z,20.39
2022-11-29T19:41:51.694Z,20.38
2022-11-29T19:44:19.274Z,20.37
2022-11-29T19:46:46.636Z,20.37
2022-11-29T19:49:12.921Z,20.36
2022-11-29T19:51:39.274Z,20.34
2022-11-29T19:54:06.234Z,20.34
2022-11-29T19:56:32.653Z,20.33
2022-11-29T19:58:59.158Z,20.31
2022-11-29T20:01:28.255Z,20.32
2022-11-29T20:03:54.807Z,20.31
2022-11-29T20:06:21.161Z,20.31
2022-11-29T20:08:47.938Z,20.27
2022-11-29T20:11:15.189Z,20.29
2022-11-29T20:13:42.638Z,20.27
2022-11-29T20:16:10.009Z,20.25
2022-11-29T20:18:39.407Z,20.24
2022-11-29T20:21:06.594Z,20.25
2022-11-29T20:23:33.027Z,20.24
2022-11-29T20:25:59.368Z,20.23
2022-11-29T20:28:25.677Z,20.22
2022-11-29T20:30:52.146Z,20.22
2022-11-29T20:33:21.748Z,20.22
2022-11-29T20:35:50.872Z,20.19
2022-11-29T20:38:28.659Z,20.19
2022-11-29T20:41:02.461Z,20.18
2022-11-29T20:43:34.621Z,20.18
2022-11-29T20:46:01.123Z,20.18
2022-11-29T20:48:27.627Z,20.18
2022-11-29T20:50:57.211Z,20.15
2022-11-29T20:53:30.313Z,20.15
2022-11-29T20:55:56.608Z,20.13
2022-11-29T20:58:23.187Z,20.14
2022-11-29T21:00:49.708Z,20.13
2022-11-29T21:03:16.682Z,20.11
2022-11-29T21:05:43.450Z,20.13
2022-11-29T21:08:11.216Z,20.12
2022-11-29T21:10:37.590Z,20.11
2022-11-29T21:13:03.977Z,20.10
2022-11-29T21:15:30.516Z,20.09
2022-11-29T21:17:57.047Z,20.09
2022-11-29T21:20:24.467Z,20.09
2022-11-29T21:22:58.468Z,20.09
2022-11-29T21:25:31.346Z,20.09
2022-11-29T21:27:57.879Z,20.08
2022-11-29T21:30:24.894Z,20.08
2022-11-29T21:32:51.738Z,20.07
2022-11-29T21:35:18.238Z,20.06
2022-11-29T21:37:44.891Z,20.07
2022-11-29T21:40:12.685Z,20.04
2022-11-29T21:42:40.271Z,20.05
2022-11-29T21:45:13.270Z,20.03
2022-11-29T21:47:41.524Z,20.02
2022-11-29T21:50:08.171Z,20.02
2022-11-29T21:52:34.432Z,20.02
2022-11-29T21:55:00.864Z,20.01
2022-11-29T21:57:27.153Z,20.00
2022-11-29T21:59:54.758Z,20.00
2022-11-29T22:02:21.188Z,20.00
2022-11-29T22:04:48.024Z,19.99
2022-11-29T22:07:14.576Z,19.99
2022-11-29T22:09:40.980Z,19.96
2022-11-29T22:12:26.224Z,19.97
2022-11-29T22:14:54.874Z,19.97
2022-11-29T22:17:21.198Z,19.95
2022-11-29T22:19:47.519Z,19.95
2022-11-29T22:22:13.806Z,19.96
2022-11-29T22:24:40.147Z,19.95
2022-11-29T22:27:06.525Z,19.94
2022-11-29T22:29:32.823Z,19.96
2022-11-29T22:32:00.501Z,19.94
2022-11-29T22:34:27.155Z,19.96
2022-11-29T22:36:53.773Z,19.95
2022-11-29T22:39:20.035Z,19.94
2022-11-29T22:41:52.278Z,19.93
2022-11-29T22:44:20.145Z,19.92
2022-11-29T22:46:46.489Z,19.91
2022-11-29T22:49:14.238Z,19.91
2022-11-29T22:51:40.631Z,19.92
2022-11-29T22:54:07.987Z,19.91
2022-11-29T22:56:35.292Z,19.92
2022-11-29T22:59:01.720Z,19.90
2022-11-29T23:01:28.867Z,19.89
2022-11-29T23:03:55.939Z,19.91
2022-11-29T23:06:24.562Z,19.89
2022-11-29T23:08:51.534Z,19.88
2022-11-29T23:11:19.916Z,19.87
2022-11-29T23:13:46.544Z,19.87
2022-11-29T23:16:13.979Z,19.86
2022-11-29T23:18:40.467Z,19.85
2022-11-29T23:21:08.153Z,19.87
2022-11-29T23:23:36.120Z,19.84
2022-11-29T23:26:02.978Z,19.85
2022-11-29T23:28:29.608Z,19.84
2022-11-29T23:30:56.000Z,19.84
2022-11-29T23:33:22.829Z,19.85
2022-11-29T23:35:49.533Z,19.84
2022-11-29T23:38:16.305Z,19.83
2022-11-29T23:40:44.461Z,19.83
2022-11-29T23:43:10.892Z,19.83
2022-11-29T23:45:38.377Z,19.81
2022-11-29T23:48:04.962Z,19.80
2022-11-29T23:50:31.288Z,19.79
2022-11-29T23:52:57.626Z,19.78
2022-11-29T23:55:24.160Z,19.78
2022-11-29T23:57:52.098Z,19.79
